createdAt,value
2018-10-03T00:00:24.991Z,93.65
2018-10-03T00:01:24.726Z,93.65
2018-10-03T00:02:24.970Z,93.65
2018-10-03T00:03:24.961Z,93.08
2018-10-03T00:04:24.953Z,93.17
2018-10-03T00:05:24.945Z,93.36
2018-10-03T00:06:24.936Z,93.27
2018-10-03T00:07:24.984Z,92.79
2018-10-03T00:08:24.664Z,92.69
2018-10-03T00:09:24.909Z,92.88
2018-10-03T00:10:24.648Z,93.08
2018-10-03T00:11:24.903Z,93.08
2018-10-03T00:12:24.882Z,92.98
2018-10-03T00:13:24.876Z,92.88
2018-10-03T00:14:24.614Z,93.08
2018-10-03T00:15:24.860Z,93.27
2018-10-03T00:16:24.597Z,92.88
2018-10-03T00:17:24.588Z,93.08
2018-10-03T00:18:24.833Z,92.98
2018-10-03T00:19:24.823Z,92.88
2018-10-03T00:20:24.815Z,92.88
2018-10-03T00:21:24.804Z,93.17
2018-10-03T00:22:24.807Z,93.17
2018-10-03T00:23:24.936Z,93.36
2018-10-03T00:24:24.783Z,93.36
2018-10-03T00:25:24.772Z,92.98
2018-10-03T00:26:24.762Z,92.88
2018-10-03T00:27:24.500Z,92.6
2018-10-03T00:28:24.750Z,92.69
2018-10-03T00:29:24.737Z,93.17
2018-10-03T00:30:24.725Z,93.36
2018-10-03T00:31:24.721Z,92.12
2018-10-03T00:32:24.713Z,92.41
2018-10-03T00:33:24.449Z,92.41
2018-10-03T00:34:24.696Z,92.03
2018-10-03T00:35:24.682Z,92.5
2018-10-03T00:36:24.677Z,92.6
2018-10-03T00:37:24.666Z,92.41
2018-10-03T00:38:24.657Z,92.22
2018-10-03T00:39:24.653Z,92.41
2018-10-03T00:40:24.644Z,92.5
2018-10-03T00:41:24.380Z,92.5
2018-10-03T00:42:24.621Z,92.41
2018-10-03T00:43:24.362Z,92.22
2018-10-03T00:44:24.606Z,92.69
2018-10-03T00:45:24.597Z,92.41
2018-10-03T00:46:24.587Z,92.5
2018-10-03T00:47:24.582Z,92.6
2018-10-03T00:48:24.319Z,92.6
2018-10-03T00:49:24.560Z,92.07
2018-10-03T00:50:24.553Z,91.74
2018-10-03T00:51:24.548Z,92.03
2018-10-03T00:52:24.535Z,92.22
2018-10-03T00:53:24.574Z,92.03
2018-10-03T00:54:24.265Z,91.83
2018-10-03T00:55:24.510Z,91.74
2018-10-03T00:56:24.500Z,91.83
2018-10-03T00:57:24.492Z,91.93
2018-10-03T00:58:24.542Z,92.03
2018-10-03T00:59:24.475Z,92.03
2018-10-03T01:00:24.467Z,92.03
2018-10-03T01:01:24.461Z,91.46
2018-10-03T01:02:24.708Z,91.27
2018-10-03T01:03:24.440Z,92.03
2018-10-03T01:04:24.432Z,92.12
2018-10-03T01:05:24.423Z,91.93
2018-10-03T01:06:24.417Z,92.03
2018-10-03T01:07:24.406Z,91.93
2018-10-03T01:08:24.401Z,91.74
2018-10-03T01:09:24.389Z,92.03
2018-10-03T01:10:24.380Z,91.93
2018-10-03T01:11:24.120Z,91.74
2018-10-03T01:12:24.364Z,91.74
2018-10-03T01:13:24.356Z,91.83
2018-10-03T01:14:24.349Z,91.83
2018-10-03T01:15:24.341Z,91.74
2018-10-03T01:16:24.333Z,92.03
2018-10-03T01:17:24.069Z,91.83
2018-10-03T01:18:24.313Z,92.12
2018-10-03T01:19:24.307Z,92.03
2018-10-03T01:20:24.297Z,92.03
2018-10-03T01:21:24.285Z,92.12
2018-10-03T01:22:24.280Z,92.69
2018-10-03T01:23:24.269Z,92.6
2018-10-03T01:24:24.262Z,92.69
2018-10-03T01:25:24.257Z,92.5
2018-10-03T01:26:24.242Z,92.5
2018-10-03T01:27:24.238Z,92.41
2018-10-03T01:28:24.224Z,92.6
2018-10-03T01:29:24.215Z,92.41
2018-10-03T01:30:24.214Z,92.22
2018-10-03T01:31:24.200Z,92.41
2018-10-03T01:32:23.937Z,92.5
2018-10-03T01:33:24.432Z,92.41
2018-10-03T01:34:24.172Z,92.12
2018-10-03T01:35:23.911Z,92.6
2018-10-03T01:36:24.155Z,92.79
2018-10-03T01:37:24.150Z,92.88
2018-10-03T01:38:24.342Z,92.79
2018-10-03T01:39:24.129Z,92.69
2018-10-03T01:40:24.122Z,92.41
2018-10-03T01:41:24.115Z,92.6
2018-10-03T01:42:24.105Z,92.79
2018-10-03T01:43:23.841Z,92.6
2018-10-03T01:44:24.084Z,92.41
2018-10-03T01:45:24.077Z,92.98
2018-10-03T01:46:24.078Z,92.98
2018-10-03T01:47:24.060Z,93.17
2018-10-03T01:48:23.797Z,92.6
2018-10-03T01:49:23.788Z,93.17
2018-10-03T01:50:24.032Z,92.6
2018-10-03T01:51:24.023Z,92.41
2018-10-03T01:52:24.015Z,92.22
2018-10-03T01:53:24.012Z,92.41
2018-10-03T01:54:24.003Z,92.6
2018-10-03T01:55:23.739Z,92.5
2018-10-03T01:56:23.983Z,91.93
2018-10-03T01:57:23.971Z,92.22
2018-10-03T01:58:23.961Z,92.6
2018-10-03T01:59:23.953Z,92.6
2018-10-03T02:00:23.943Z,92.5
2018-10-03T02:01:23.935Z,92.5
2018-10-03T02:02:23.926Z,92.6
2018-10-03T02:03:23.667Z,92.6
2018-10-03T02:04:24.160Z,92.88
2018-10-03T02:05:23.648Z,92.6
2018-10-03T02:06:23.892Z,92.6
2018-10-03T02:07:23.888Z,92.6
2018-10-03T02:08:23.879Z,92.5
2018-10-03T02:09:23.864Z,92.22
2018-10-03T02:10:23.605Z,92.22
2018-10-03T02:11:23.597Z,92.79
2018-10-03T02:12:23.839Z,93.08
2018-10-03T02:13:23.831Z,92.6
2018-10-03T02:14:23.820Z,92.32
2018-10-03T02:15:23.813Z,92.5
2018-10-03T02:16:23.807Z,92.41
2018-10-03T02:17:23.795Z,92.79
2018-10-03T02:18:23.538Z,91.93
2018-10-03T02:19:23.788Z,91.17
2018-10-03T02:20:23.770Z,92.12
2018-10-03T02:21:23.760Z,92.12
2018-10-03T02:22:23.750Z,91.46
2018-10-03T02:23:23.742Z,91.46
2018-10-03T02:24:23.735Z,91.55
2018-10-03T02:25:23.727Z,91.17
2018-10-03T02:26:23.716Z,91.55
2018-10-03T02:27:23.709Z,91.55
2018-10-03T02:28:23.700Z,91.36
2018-10-03T02:29:23.689Z,91.17
2018-10-03T02:30:23.429Z,91.07
2018-10-03T02:31:23.725Z,91.17
2018-10-03T02:32:23.666Z,91.36
2018-10-03T02:33:23.659Z,91.36
2018-10-03T02:34:23.645Z,91.36
2018-10-03T02:35:23.385Z,91.36
2018-10-03T02:36:23.630Z,90.98
2018-10-03T02:37:23.621Z,91.55
2018-10-03T02:38:23.611Z,91.36
2018-10-03T02:39:23.350Z,91.17
2018-10-03T02:40:23.340Z,91.03
2018-10-03T02:41:23.585Z,91.17
2018-10-03T02:42:23.581Z,91.31
2018-10-03T02:43:23.566Z,91.5
2018-10-03T02:44:23.558Z,91.41
2018-10-03T02:45:23.548Z,91.41
2018-10-03T02:46:23.551Z,91.31
2018-10-03T02:47:23.540Z,91.31
2018-10-03T02:48:23.524Z,91.41
2018-10-03T02:49:23.514Z,91.31
2018-10-03T02:50:23.507Z,91.31
2018-10-03T02:51:23.501Z,91.31
2018-10-03T02:52:23.546Z,91.31
2018-10-03T02:53:23.477Z,91.03
2018-10-03T02:54:23.482Z,91.22
2018-10-03T02:55:23.462Z,91.31
2018-10-03T02:56:23.456Z,91.31
2018-10-03T02:57:23.444Z,91.41
2018-10-03T02:58:23.434Z,91.03
2018-10-03T02:59:23.425Z,91.41
2018-10-03T03:00:23.164Z,91.31
2018-10-03T03:01:23.409Z,91.41
2018-10-03T03:02:23.397Z,91.31
2018-10-03T03:03:23.388Z,91.5
2018-10-03T03:04:23.384Z,91.5
2018-10-03T03:05:23.376Z,91.13
2018-10-03T03:06:23.365Z,90.64
2018-10-03T03:07:23.353Z,90.45
2018-10-03T03:08:23.440Z,90.64
2018-10-03T03:09:23.339Z,90.36
2018-10-03T03:10:23.074Z,90.59
2018-10-03T03:11:23.316Z,90.5
2018-10-03T03:12:23.309Z,90.88
2018-10-03T03:13:23.300Z,90.59
2018-10-03T03:14:23.290Z,90.59
2018-10-03T03:15:23.281Z,90.88
2018-10-03T03:16:23.271Z,90.41
2018-10-03T03:17:23.262Z,90.79
2018-10-03T03:18:23.280Z,90.69
2018-10-03T03:19:23.245Z,90.59
2018-10-03T03:20:22.984Z,90.59
2018-10-03T03:21:22.977Z,90.88
2018-10-03T03:22:23.218Z,90.79
2018-10-03T03:23:23.209Z,90.69
2018-10-03T03:24:23.201Z,91.46
2018-10-03T03:25:23.193Z,91.55
2018-10-03T03:26:23.189Z,91.36
2018-10-03T03:27:23.178Z,91.31
2018-10-03T03:28:23.168Z,91.31
2018-10-03T03:29:23.161Z,91.03
2018-10-03T03:30:23.153Z,91.13
2018-10-03T03:31:23.144Z,91.41
2018-10-03T03:32:22.880Z,91.13
2018-10-03T03:33:23.119Z,91.13
2018-10-03T03:34:22.861Z,91.13
2018-10-03T03:35:23.105Z,91.22
2018-10-03T03:36:22.846Z,91.13
2018-10-03T03:37:23.085Z,91.41
2018-10-03T03:38:23.078Z,91.22
2018-10-03T03:39:23.067Z,91.31
2018-10-03T03:40:23.056Z,91.13
2018-10-03T03:41:23.053Z,91.03
2018-10-03T03:42:23.040Z,91.31
2018-10-03T03:43:23.031Z,91.41
2018-10-03T03:44:23.021Z,91.6
2018-10-03T03:45:22.760Z,91.6
2018-10-03T03:46:23.005Z,91.41
2018-10-03T03:47:22.995Z,91.6
2018-10-03T03:48:22.984Z,91.31
2018-10-03T03:49:22.980Z,91.41
2018-10-03T03:50:22.979Z,91.31
2018-10-03T03:51:22.961Z,91.31
2018-10-03T03:52:22.954Z,91.41
2018-10-03T03:53:22.957Z,92.17
2018-10-03T03:54:22.934Z,91.88
2018-10-03T03:55:22.924Z,91.98
2018-10-03T03:56:22.664Z,91.79
2018-10-03T03:57:22.904Z,91.79
2018-10-03T03:58:22.897Z,92.17
2018-10-03T03:59:22.633Z,91.31
2018-10-03T04:00:22.880Z,91.41
2018-10-03T04:01:22.867Z,91.69
2018-10-03T04:02:22.864Z,91.41
2018-10-03T04:03:22.862Z,91.31
2018-10-03T04:04:22.840Z,91.13
2018-10-03T04:05:22.829Z,91.31
2018-10-03T04:06:22.822Z,91.5
2018-10-03T04:07:22.814Z,91.41
2018-10-03T04:08:22.551Z,91.41
2018-10-03T04:09:22.800Z,91.13
2018-10-03T04:10:22.791Z,91.13
2018-10-03T04:11:22.797Z,91.31
2018-10-03T04:12:22.765Z,91.17
2018-10-03T04:13:22.757Z,91.08
2018-10-03T04:14:22.750Z,91.08
2018-10-03T04:15:22.745Z,91.27
2018-10-03T04:16:22.741Z,91.08
2018-10-03T04:17:22.722Z,91.36
2018-10-03T04:18:22.713Z,91.08
2018-10-03T04:19:22.700Z,91.36
2018-10-03T04:20:22.698Z,91.08
2018-10-03T04:21:22.687Z,91.08
2018-10-03T04:22:22.677Z,91.08
2018-10-03T04:23:22.666Z,91.17
2018-10-03T04:24:22.654Z,91.27
2018-10-03T04:25:22.645Z,91.27
2018-10-03T04:26:22.637Z,91.5
2018-10-03T04:27:22.628Z,91.31
2018-10-03T04:28:22.615Z,91.13
2018-10-03T04:29:22.610Z,90.64
2018-10-03T04:30:22.604Z,90.93
2018-10-03T04:31:22.593Z,90.55
2018-10-03T04:32:22.580Z,90.36
2018-10-03T04:33:22.570Z,90.55
2018-10-03T04:34:22.564Z,90.64
2018-10-03T04:35:22.553Z,90.36
2018-10-03T04:36:22.543Z,90.84
2018-10-03T04:37:22.535Z,90.64
2018-10-03T04:38:22.524Z,90.55
2018-10-03T04:39:22.515Z,90.36
2018-10-03T04:40:22.509Z,90.64
2018-10-03T04:41:22.498Z,90.36
2018-10-03T04:42:22.791Z,90.55
2018-10-03T04:43:22.477Z,90.55
2018-10-03T04:44:22.471Z,90.08
2018-10-03T04:45:22.461Z,90.36
2018-10-03T04:46:22.453Z,90.36
2018-10-03T04:47:22.446Z,90.36
2018-10-03T04:48:22.432Z,90.36
2018-10-03T04:49:22.423Z,89.89
2018-10-03T04:50:22.450Z,89.98
2018-10-03T04:51:22.410Z,89.79
2018-10-03T04:52:22.395Z,89.79
2018-10-03T04:53:22.399Z,90.08
2018-10-03T04:54:22.381Z,89.98
2018-10-03T04:55:22.368Z,89.6
2018-10-03T04:56:22.359Z,89.31
2018-10-03T04:57:22.097Z,89.03
2018-10-03T04:58:22.340Z,89.12
2018-10-03T04:59:22.079Z,88.26
2018-10-03T05:00:22.327Z,88.26
2018-10-03T05:01:22.313Z,88.17
2018-10-03T05:02:22.304Z,88.26
2018-10-03T05:03:22.296Z,88.02
2018-10-03T05:04:22.284Z,88.4
2018-10-03T05:05:22.027Z,88.59
2018-10-03T05:06:22.272Z,88.5
2018-10-03T05:07:22.260Z,88.12
2018-10-03T05:08:21.997Z,88.21
2018-10-03T05:09:22.253Z,88.78
2018-10-03T05:10:22.232Z,88.78
2018-10-03T05:11:22.654Z,88.88
2018-10-03T05:12:22.213Z,88.59
2018-10-03T05:13:22.205Z,88.98
2018-10-03T05:14:22.196Z,88.78
2018-10-03T05:15:22.193Z,88.59
2018-10-03T05:16:22.177Z,88.78
2018-10-03T05:17:22.168Z,88.4
2018-10-03T05:18:21.909Z,88.4
2018-10-03T05:19:22.154Z,88.5
2018-10-03T05:20:22.147Z,89.26
2018-10-03T05:21:22.197Z,88.4
2018-10-03T05:22:22.129Z,89.17
2018-10-03T05:23:22.114Z,89.17
2018-10-03T05:24:22.113Z,88.88
2018-10-03T05:25:22.098Z,88.78
2018-10-03T05:26:22.089Z,89.07
2018-10-03T05:27:22.080Z,89.17
2018-10-03T05:28:22.075Z,89.17
2018-10-03T05:29:22.068Z,88.78
2018-10-03T05:30:22.054Z,88.4
2018-10-03T05:31:22.049Z,88.78
2018-10-03T05:32:22.039Z,88.59
2018-10-03T05:33:22.210Z,88.98
2018-10-03T05:34:22.018Z,88.31
2018-10-03T05:35:22.019Z,88.69
2018-10-03T05:36:22.000Z,88.21
2018-10-03T05:37:21.996Z,88.31
2018-10-03T05:38:21.984Z,87.64
2018-10-03T05:39:21.723Z,88.02
2018-10-03T05:40:21.968Z,87.54
2018-10-03T05:41:21.958Z,87.83
2018-10-03T05:42:22.198Z,87.83
2018-10-03T05:43:21.939Z,88.12
2018-10-03T05:44:21.935Z,88.02
2018-10-03T05:45:21.924Z,87.83
2018-10-03T05:46:21.919Z,87.83
2018-10-03T05:47:21.655Z,87.74
2018-10-03T05:48:21.967Z,87.64
2018-10-03T05:49:21.890Z,87.93
2018-10-03T05:50:21.881Z,88.02
2018-10-03T05:51:21.872Z,87.74
2018-10-03T05:52:21.865Z,87.74
2018-10-03T05:53:21.856Z,87.64
2018-10-03T05:54:21.594Z,87.74
2018-10-03T05:55:21.837Z,87.74
2018-10-03T05:56:21.837Z,87.74
2018-10-03T05:57:21.826Z,87.3
2018-10-03T05:58:21.560Z,87.3
2018-10-03T05:59:21.806Z,86.73
2018-10-03T06:00:21.796Z,87.02
2018-10-03T06:01:21.790Z,87.02
2018-10-03T06:02:21.529Z,87.11
2018-10-03T06:03:21.786Z,87.3
2018-10-03T06:04:21.769Z,87.3
2018-10-03T06:05:21.759Z,87.11
2018-10-03T06:06:21.748Z,86.44
2018-10-03T06:07:21.741Z,86.54
2018-10-03T06:08:21.730Z,86.82
2018-10-03T06:09:21.734Z,86.16
2018-10-03T06:10:21.714Z,86.82
2018-10-03T06:11:21.709Z,86.35
2018-10-03T06:12:21.446Z,86.54
2018-10-03T06:13:21.938Z,85.97
2018-10-03T06:14:21.680Z,86.16
2018-10-03T06:15:21.423Z,86.73
2018-10-03T06:16:21.666Z,86.35
2018-10-03T06:17:21.655Z,86.82
2018-10-03T06:18:21.647Z,86.73
2018-10-03T06:19:21.388Z,86.16
2018-10-03T06:20:21.635Z,86.92
2018-10-03T06:21:21.645Z,86.25
2018-10-03T06:22:21.619Z,86.35
2018-10-03T06:23:21.611Z,85.87
2018-10-03T06:24:21.601Z,86.06
2018-10-03T06:25:21.598Z,86.25
2018-10-03T06:26:21.588Z,86.44
2018-10-03T06:27:21.574Z,86.35
2018-10-03T06:28:21.747Z,86.54
2018-10-03T06:29:21.306Z,86.39
2018-10-03T06:30:21.549Z,86.49
2018-10-03T06:31:21.544Z,85.97
2018-10-03T06:32:21.539Z,85.77
2018-10-03T06:33:21.635Z,85.91
2018-10-03T06:34:21.524Z,85.77
2018-10-03T06:35:21.510Z,86.2
2018-10-03T06:36:21.553Z,85.87
2018-10-03T06:37:21.493Z,85.87
2018-10-03T06:38:21.487Z,86.2
2018-10-03T06:39:21.646Z,86.01
2018-10-03T06:40:21.600Z,86.3
2018-10-03T06:41:21.488Z,86.3
2018-10-03T06:42:21.457Z,86.49
2018-10-03T06:43:21.445Z,86.01
2018-10-03T06:44:21.443Z,86.2
2018-10-03T06:45:21.428Z,85.63
2018-10-03T06:46:21.425Z,85.63
2018-10-03T06:47:21.160Z,85.91
2018-10-03T06:48:21.152Z,85.63
2018-10-03T06:49:21.397Z,85.63
2018-10-03T06:50:21.137Z,85.82
2018-10-03T06:51:21.381Z,85.72
2018-10-03T06:52:21.373Z,85.05
2018-10-03T06:53:21.365Z,85.44
2018-10-03T06:54:21.360Z,85.15
2018-10-03T06:55:21.348Z,85.15
2018-10-03T06:56:21.348Z,85.34
2018-10-03T06:57:21.337Z,84.86
2018-10-03T06:58:21.369Z,84.62
2018-10-03T06:59:21.322Z,84.52
2018-10-03T07:00:21.314Z,84.81
2018-10-03T07:01:21.308Z,84.62
2018-10-03T07:02:21.296Z,84.23
2018-10-03T07:03:21.291Z,84.48
2018-10-03T07:04:21.281Z,84.48
2018-10-03T07:05:21.277Z,84.52
2018-10-03T07:06:21.267Z,84.62
2018-10-03T07:07:21.265Z,84.23
2018-10-03T07:08:21.258Z,83.95
2018-10-03T07:09:21.243Z,84.05
2018-10-03T07:10:21.238Z,83.67
2018-10-03T07:11:21.230Z,83.95
2018-10-03T07:12:21.220Z,83.57
2018-10-03T07:13:21.221Z,84.14
2018-10-03T07:14:21.207Z,83.67
2018-10-03T07:15:21.200Z,83.86
2018-10-03T07:16:21.193Z,84.05
2018-10-03T07:17:21.199Z,84.05
2018-10-03T07:18:21.185Z,83.9
2018-10-03T07:19:20.919Z,83.09
2018-10-03T07:20:21.298Z,83.7
2018-10-03T07:21:21.162Z,82.84
2018-10-03T07:22:21.149Z,83.23
2018-10-03T07:23:21.147Z,82.65
2018-10-03T07:24:21.135Z,82.75
2018-10-03T07:25:20.882Z,82.94
2018-10-03T07:26:21.366Z,83.7
2018-10-03T07:27:21.116Z,82.84
2018-10-03T07:28:21.109Z,83.04
2018-10-03T07:29:21.149Z,82.65
2018-10-03T07:30:21.094Z,82.94
2018-10-03T07:31:21.087Z,83.04
2018-10-03T07:32:21.078Z,82.94
2018-10-03T07:33:21.073Z,82.37
2018-10-03T07:34:21.068Z,82.28
2018-10-03T07:35:20.806Z,82.37
2018-10-03T07:36:21.057Z,82.75
2018-10-03T07:37:21.047Z,82.94
2018-10-03T07:38:21.038Z,82.56
2018-10-03T07:39:21.030Z,82.65
2018-10-03T07:40:21.026Z,82.94
2018-10-03T07:41:21.020Z,83.04
2018-10-03T07:42:21.008Z,82.94
2018-10-03T07:43:21.008Z,83.13
2018-10-03T07:44:21.000Z,82.18
2018-10-03T07:45:21.041Z,82.18
2018-10-03T07:46:20.982Z,82.18
2018-10-03T07:47:20.982Z,82.12
2018-10-03T07:48:20.972Z,82.6
2018-10-03T07:49:20.961Z,82.03
2018-10-03T07:50:20.957Z,81.41
2018-10-03T07:51:20.950Z,81.36
2018-10-03T07:52:20.946Z,81.36
2018-10-03T07:53:20.945Z,81.36
2018-10-03T07:54:20.927Z,81.07
2018-10-03T07:55:20.923Z,81.07
2018-10-03T07:56:20.763Z,81.07
2018-10-03T07:57:20.927Z,80.59
2018-10-03T07:58:20.934Z,80.5
2018-10-03T07:59:20.644Z,80.88
2018-10-03T08:00:20.887Z,80.4
2018-10-03T08:01:20.888Z,80.3
2018-10-03T08:02:20.624Z,80.63
2018-10-03T08:03:20.878Z,80.73
2018-10-03T08:04:20.860Z,80.11
2018-10-03T08:05:20.603Z,80.54
2018-10-03T08:06:20.848Z,80.44
2018-10-03T08:07:20.590Z,79.77
2018-10-03T08:08:20.584Z,79.96
2018-10-03T08:09:20.850Z,80.16
2018-10-03T08:10:20.830Z,80.16
2018-10-03T08:11:20.816Z,80.25
2018-10-03T08:12:20.820Z,79.39
2018-10-03T08:13:20.808Z,79.87
2018-10-03T08:14:20.798Z,79.2
2018-10-03T08:15:20.793Z,79.58
2018-10-03T08:16:20.787Z,79.77
2018-10-03T08:17:20.534Z,79.2
2018-10-03T08:18:21.024Z,78.76
2018-10-03T08:19:20.768Z,78.09
2018-10-03T08:20:20.763Z,77.7
2018-10-03T08:21:20.508Z,77.99
2018-10-03T08:22:20.753Z,77.7
2018-10-03T08:23:20.745Z,77.9
2018-10-03T08:24:20.781Z,77.51
2018-10-03T08:25:20.735Z,78.19
2018-10-03T08:26:20.736Z,78.09
2018-10-03T08:27:20.723Z,77.61
2018-10-03T08:28:20.466Z,78.19
2018-10-03T08:29:20.711Z,78.09
2018-10-03T08:30:20.706Z,78.47
2018-10-03T08:31:20.706Z,78.86
2018-10-03T08:32:20.474Z,78.95
2018-10-03T08:33:20.905Z,78.95
2018-10-03T08:34:20.685Z,78.76
2018-10-03T08:35:20.684Z,77.7
2018-10-03T08:36:20.675Z,77.51
2018-10-03T08:37:20.668Z,77.65
2018-10-03T08:38:20.666Z,77.26
2018-10-03T08:39:20.660Z,77.46
2018-10-03T08:40:20.651Z,76.98
2018-10-03T08:41:20.647Z,76.89
2018-10-03T08:42:20.641Z,76.4
2018-10-03T08:43:20.637Z,75.83
2018-10-03T08:44:20.638Z,76.4
2018-10-03T08:45:20.426Z,76.79
2018-10-03T08:46:20.621Z,76.6
2018-10-03T08:47:20.618Z,75.73
2018-10-03T08:48:20.611Z,76.21
2018-10-03T08:49:20.855Z,75.29
2018-10-03T08:50:20.599Z,75.1
2018-10-03T08:51:20.597Z,75.29
2018-10-03T08:52:20.603Z,74.43
2018-10-03T08:53:20.585Z,74.82
2018-10-03T08:54:20.583Z,74.52
2018-10-03T08:55:20.575Z,74.91
2018-10-03T08:56:20.317Z,74.62
2018-10-03T08:57:20.565Z,74.72
2018-10-03T08:58:20.933Z,75.01
2018-10-03T08:59:20.555Z,73.47
2018-10-03T09:00:20.551Z,72.8
2018-10-03T09:01:20.546Z,72.32
2018-10-03T09:02:20.540Z,72.8
2018-10-03T09:03:20.534Z,72.23
2018-10-03T09:04:20.530Z,72.03
2018-10-03T09:05:20.524Z,72.71
2018-10-03T09:06:20.267Z,72.71
2018-10-03T09:07:20.513Z,71.75
2018-10-03T09:08:20.510Z,71.66
2018-10-03T09:09:20.505Z,71.94
2018-10-03T09:10:20.248Z,72.13
2018-10-03T09:11:20.497Z,71.94
2018-10-03T09:12:20.493Z,71.84
2018-10-03T09:13:20.484Z,72.03
2018-10-03T09:14:20.227Z,72.13
2018-10-03T09:15:20.477Z,71.75
2018-10-03T09:16:20.475Z,71.56
2018-10-03T09:17:20.466Z,72.03
2018-10-03T09:18:20.459Z,71.66
2018-10-03T09:19:20.454Z,71.08
2018-10-03T09:20:20.699Z,70.79
2018-10-03T09:21:20.525Z,71.08
2018-10-03T09:22:20.440Z,71.37
2018-10-03T09:23:20.440Z,70.98
2018-10-03T09:24:20.433Z,70.5
2018-10-03T09:25:20.425Z,70.6
2018-10-03T09:26:20.419Z,70.79
2018-10-03T09:27:20.421Z,69.64
2018-10-03T09:28:20.539Z,69.35
2018-10-03T09:29:20.405Z,70.03
2018-10-03T09:30:20.147Z,69.74
2018-10-03T09:31:20.393Z,69.54
2018-10-03T09:32:20.389Z,68.49
2018-10-03T09:33:20.386Z,68.3
2018-10-03T09:34:20.379Z,68.21
2018-10-03T09:35:20.374Z,68.21
2018-10-03T09:36:20.371Z,68.59
2018-10-03T09:37:20.364Z,67.44
2018-10-03T09:38:20.106Z,67.54
2018-10-03T09:39:20.362Z,67.66
2018-10-03T09:40:20.398Z,67.91
2018-10-03T09:41:20.344Z,67.91
2018-10-03T09:42:20.342Z,66.89
2018-10-03T09:43:20.334Z,66.22
2018-10-03T09:44:20.374Z,65.36
2018-10-03T09:45:20.326Z,64.79
2018-10-03T09:46:20.320Z,65.17
2018-10-03T09:47:20.315Z,65.65
2018-10-03T09:48:20.311Z,65.75
2018-10-03T09:49:20.306Z,65.17
2018-10-03T09:50:20.053Z,64.59
2018-10-03T09:51:20.298Z,64.69
2018-10-03T09:52:20.295Z,64.4
2018-10-03T09:53:20.288Z,62.87
2018-10-03T09:54:20.287Z,63.54
2018-10-03T09:55:20.282Z,63.64
2018-10-03T09:56:20.278Z,63.67
2018-10-03T09:57:20.019Z,63.64
2018-10-03T09:58:20.013Z,64.4
2018-10-03T09:59:20.262Z,64.31
2018-10-03T10:00:20.048Z,64.31
2018-10-03T10:01:20.252Z,62.96
2018-10-03T10:02:20.250Z,63.64
2018-10-03T10:03:19.991Z,63.06
2018-10-03T10:04:20.241Z,63.54
2018-10-03T10:05:20.233Z,63.54
2018-10-03T10:06:20.228Z,63.16
2018-10-03T10:07:19.972Z,63.45
2018-10-03T10:08:19.967Z,63.54
2018-10-03T10:09:19.967Z,63.83
2018-10-03T10:10:20.373Z,63.54
2018-10-03T10:11:20.088Z,63.8
2018-10-03T10:12:19.948Z,62.84
2018-10-03T10:13:19.943Z,62.93
2018-10-03T10:14:20.191Z,63.03
2018-10-03T10:15:20.185Z,63.6
2018-10-03T10:16:20.179Z,63.89
2018-10-03T10:17:20.175Z,64.28
2018-10-03T10:18:20.172Z,64.47
2018-10-03T10:19:19.913Z,64.12
2018-10-03T10:20:20.163Z,65.17
2018-10-03T10:21:20.157Z,64.22
2018-10-03T10:22:20.156Z,64.4
2018-10-03T10:23:20.148Z,64.31
2018-10-03T10:24:20.143Z,64.12
2018-10-03T10:25:20.138Z,63.92
2018-10-03T10:26:20.131Z,64.02
2018-10-03T10:27:20.129Z,64.22
2018-10-03T10:28:20.125Z,64.4
2018-10-03T10:29:20.123Z,64.69
2018-10-03T10:30:20.115Z,65.26
2018-10-03T10:31:20.116Z,69.39
2018-10-03T10:32:20.446Z,72.36
2018-10-03T10:33:20.101Z,71.98
2018-10-03T10:34:19.845Z,73.7
2018-10-03T10:35:20.097Z,73.7
2018-10-03T10:36:20.096Z,72.07
2018-10-03T10:37:20.083Z,70.73
2018-10-03T10:38:20.079Z,70.92
2018-10-03T10:39:19.823Z,71.11
2018-10-03T10:40:20.307Z,70.03
2018-10-03T10:41:20.543Z,69.74
2018-10-03T10:42:20.061Z,69.77
2018-10-03T10:43:19.844Z,67.63
2018-10-03T10:44:20.050Z,67.91
2018-10-03T10:45:19.795Z,66.71
2018-10-03T10:46:19.790Z,66.22
2018-10-03T10:47:20.038Z,66.58
2018-10-03T10:48:20.032Z,67.05
2018-10-03T10:49:19.775Z,66.58
2018-10-03T10:50:20.223Z,66.86
2018-10-03T10:51:20.017Z,67.11
2018-10-03T10:52:20.019Z,66.83
2018-10-03T10:53:20.007Z,66.74
2018-10-03T10:54:20.007Z,66.16
2018-10-03T10:55:19.999Z,66.16
2018-10-03T10:56:19.994Z,66.25
2018-10-03T10:57:19.989Z,66.64
2018-10-03T10:58:19.731Z,66.25
2018-10-03T10:59:19.978Z,66.19
2018-10-03T11:00:19.973Z,66.19
2018-10-03T11:01:19.967Z,66.19
2018-10-03T11:02:19.960Z,65.91
2018-10-03T11:03:19.956Z,65.91
2018-10-03T11:04:19.951Z,65.91
2018-10-03T11:05:19.947Z,66.09
2018-10-03T11:06:20.128Z,66.48
2018-10-03T11:07:19.938Z,64.85
2018-10-03T11:08:19.931Z,65.52
2018-10-03T11:09:19.674Z,65.05
2018-10-03T11:10:19.921Z,67.15
2018-10-03T11:11:19.917Z,68.68
2018-10-03T11:12:19.659Z,69.07
2018-10-03T11:13:19.906Z,69.93
2018-10-03T11:14:19.900Z,72.42
2018-10-03T11:15:19.644Z,73.05
2018-10-03T11:16:19.916Z,74.77
2018-10-03T11:17:19.632Z,76.08
2018-10-03T11:18:19.885Z,75.89
2018-10-03T11:19:19.876Z,75.98
2018-10-03T11:20:19.621Z,76.84
2018-10-03T11:21:19.868Z,77.19
2018-10-03T11:22:19.608Z,81.68
2018-10-03T11:23:19.883Z,88.48
2018-10-03T11:24:19.745Z,88.86
2018-10-03T11:25:19.857Z,88.05
2018-10-03T11:26:19.839Z,85.47
2018-10-03T11:27:27.171Z,33.06
